Terminal Aerodrome Forecast
Issued by NWS

Current Version | Previous Version | Graphics & Text | Print | Product List | Glossary On
Versions: 1 2 3 4 5 6 7 8 9 10 11 12 13 14 15 16 17 18 19 20
000
FTUS41 KILN 210300 AAA
TAFLUK
TAF AMD
KLUK 210306Z 2103/2124 24005KT P6SM FEW050
     FM210600 VRB03KT P6SM SKC
     FM211500 12004KT P6SM SCT250=

USA.gov is the U.S. government's official web portal to all federal, state and local government web resources and services.